Terminal Aerodrome Forecast
Issued by NWS

Home | Current Version | Previous Version | Graphics & Text | Print | Product List | Glossary On
Versions: 1 2 3 4 5 6 7 8 9 10 11 12 13 14 15 16 17 18
352
FTUS43 KLSX 291129
TAFSUS
TAF
KSUS 291129Z 2912/3012 32008KT P6SM SCT140
     FM291500 34012KT P6SM BKN025
     FM291800 35012G18KT P6SM BKN040
     FM300400 34006KT P6SM BKN030
     FM300700 34007KT P6SM BKN015=

USA.gov is the U.S. government's official web portal to all federal, state and local government web resources and services.